Main page
METAR-TAF:

METAR-TAF

Airports :

Milan, Italy

Milan–Malpensa Airport

latitude: 45-37N, longitude: 008-44E, elevation: 234 m

Current weather observation

The report was made 44 minutes ago, at 01:20 UTC
Wind 2 kt from variable directions
Temperature -3°C
Humidity 80%
Pressure 1015 hPa
Visibility 10 km or more
no clouds below 1500 m and no cumulonimbus

METAR: LIMC 170120Z VRB02KT CAVOK M03/M06 Q1015 NOSIG

Time: 03:04 (02:04 UTC)

Forecast

The report was made 3 hours and 4 minutes ago, at 23:00 UTC
Forecast valid from 17 at 00 UTC to 18 at 06 UTC
Wind 5 kt from variable directions
Visibility 10 km or more
no clouds below 1500 m and no cumulonimbus
Temporary
from 17 at 02 UTC to 17 at 08 UTC
Visibility: 4000 m
patches of fog

TAF: LIMC 162300Z 1700/1806 VRB05KT CAVOK TEMPO 1702/1708 4000 BCFG

Weather observations and forecasts of more than 4000 airports (METAR and TAF reports).

The available stations are represented by yellow and red dots on the map.

Hover mouse over dot to see the name of the station.

Then click to see weather observations and forecasts.

To change the map : click on the green buttons with a black cross to zoom in, on the green button with a dash to zoom out, or on the green arrows for adjacent maps.


METAR-TAF: